createdAt,value
2023-04-19T00:00:24.557Z,15.20
2023-04-19T00:00:57.697Z,13.43
2023-04-19T00:01:29.540Z,14.55
2023-04-19T00:02:02.361Z,13.98
2023-04-19T00:02:35.364Z,14.27
2023-04-19T00:03:08.403Z,12.85
2023-04-19T00:03:40.600Z,14.30
2023-04-19T00:04:12.957Z,14.73
2023-04-19T00:04:47.433Z,13.65
2023-04-19T00:05:20.353Z,13.50
2023-04-19T00:05:54.414Z,13.57
2023-04-19T00:06:30.346Z,14.70
2023-04-19T00:07:03.383Z,13.23
2023-04-19T00:07:35.349Z,14.43
2023-04-19T00:08:08.724Z,13.32
2023-04-19T00:08:40.581Z,13.30
2023-04-19T00:09:13.799Z,13.85
2023-04-19T00:09:46.619Z,13.85
2023-04-19T00:10:18.587Z,14.50
2023-04-19T00:10:50.404Z,13.52
2023-04-19T00:11:23.156Z,14.27
2023-04-19T00:11:55.403Z,13.13
2023-04-19T00:12:27.271Z,14.82
2023-04-19T00:13:00.059Z,14.15
2023-04-19T00:13:31.864Z,13.43
2023-04-19T00:14:03.686Z,12.82
2023-04-19T00:14:36.498Z,13.63
2023-04-19T00:15:08.982Z,13.35
2023-04-19T00:15:40.984Z,13.90
2023-04-19T00:16:13.827Z,13.55
2023-04-19T00:16:45.697Z,14.70
2023-04-19T00:17:17.982Z,13.57
2023-04-19T00:17:51.249Z,14.43
2023-04-19T00:18:23.054Z,13.75
2023-04-19T00:18:54.902Z,13.93
2023-04-19T00:19:27.744Z,14.75
2023-04-19T00:19:59.547Z,12.45
2023-04-19T00:20:31.419Z,13.93
2023-04-19T00:21:04.759Z,13.77
2023-04-19T00:21:36.593Z,13.80
2023-04-19T00:22:08.416Z,14.27
2023-04-19T00:22:40.571Z,12.52
2023-04-19T00:23:13.372Z,14.25
2023-04-19T00:23:45.188Z,13.05
2023-04-19T00:24:18.479Z,15.57
2023-04-19T00:24:51.245Z,14.35
2023-04-19T00:25:23.177Z,13.23
2023-04-19T00:25:55.107Z,14.35
2023-04-19T00:26:27.010Z,15.25
2023-04-19T00:27:00.357Z,14.13
2023-04-19T00:27:32.480Z,14.20
2023-04-19T00:28:05.065Z,12.90
2023-04-19T00:28:37.983Z,13.65
2023-04-19T00:29:11.023Z,15.88
2023-04-19T00:29:42.852Z,14.18
2023-04-19T00:30:15.720Z,13.57
2023-04-19T00:30:47.639Z,13.07
2023-04-19T00:31:19.567Z,14.15
2023-04-19T00:31:52.998Z,12.85
2023-04-19T00:32:24.977Z,13.70
2023-04-19T00:32:56.856Z,13.48
2023-04-19T00:33:29.679Z,13.95
2023-04-19T00:34:01.463Z,13.55
2023-04-19T00:34:33.253Z,13.45
2023-04-19T00:35:06.764Z,13.73
2023-04-19T00:35:38.732Z,12.95
2023-04-19T00:36:10.741Z,13.20
2023-04-19T00:36:43.556Z,14.00
2023-04-19T00:37:15.574Z,12.70
2023-04-19T00:37:47.395Z,13.88
2023-04-19T00:38:20.208Z,13.18
2023-04-19T00:38:51.995Z,14.18
2023-04-19T00:39:25.334Z,13.52
2023-04-19T00:39:58.166Z,13.48
2023-04-19T00:40:31.235Z,13.95
2023-04-19T00:41:03.044Z,13.23
2023-04-19T00:41:35.814Z,13.60
2023-04-19T00:42:07.690Z,13.20
2023-04-19T00:42:39.568Z,13.27
2023-04-19T00:43:12.350Z,13.15
2023-04-19T00:43:44.294Z,13.80
2023-04-19T00:44:16.400Z,12.10
2023-04-19T00:44:48.311Z,14.60
2023-04-19T00:45:21.319Z,12.50
2023-04-19T00:45:53.568Z,13.20
2023-04-19T00:46:26.469Z,13.00
2023-04-19T00:47:00.830Z,13.75
2023-04-19T00:47:32.866Z,12.73
2023-04-19T00:48:05.295Z,13.43
2023-04-19T00:48:38.236Z,13.25
2023-04-19T00:49:10.176Z,13.50
2023-04-19T00:49:41.954Z,12.27
2023-04-19T00:50:13.895Z,12.20
2023-04-19T00:50:46.770Z,13.25
2023-04-19T00:51:18.886Z,13.13
2023-04-19T00:51:51.068Z,13.80
2023-04-19T00:52:23.574Z,13.63
2023-04-19T00:52:57.014Z,14.77
2023-04-19T00:53:29.038Z,14.18
2023-04-19T00:54:02.542Z,13.80
2023-04-19T00:54:37.963Z,12.65
2023-04-19T00:55:10.241Z,13.95
2023-04-19T00:55:43.033Z,13.30
2023-04-19T00:56:16.575Z,13.80
2023-04-19T00:56:48.503Z,12.88
2023-04-19T00:57:21.558Z,11.73
2023-04-19T00:57:55.359Z,13.88
2023-04-19T00:58:30.069Z,13.27
2023-04-19T00:59:02.360Z,13.88
2023-04-19T00:59:35.916Z,12.60
2023-04-19T01:00:09.886Z,14.68
2023-04-19T01:00:41.767Z,14.20
2023-04-19T01:01:14.553Z,14.05
2023-04-19T01:01:46.413Z,15.05
2023-04-19T01:02:18.464Z,14.10
2023-04-19T01:02:50.472Z,13.38
2023-04-19T01:03:23.509Z,13.00
2023-04-19T01:03:55.524Z,14.60
2023-04-19T01:04:27.666Z,14.45
2023-04-19T01:05:00.917Z,12.85
2023-04-19T01:05:32.792Z,12.45
2023-04-19T01:06:04.906Z,13.90
2023-04-19T01:06:39.070Z,13.38
2023-04-19T01:07:11.158Z,14.07
2023-04-19T01:07:43.549Z,13.95
2023-04-19T01:08:16.510Z,15.05
2023-04-19T01:08:48.604Z,14.80
2023-04-19T01:09:20.464Z,12.60
2023-04-19T01:09:53.669Z,13.77
2023-04-19T01:10:26.610Z,14.80
2023-04-19T01:10:58.478Z,13.70
2023-04-19T01:11:30.484Z,13.57
2023-04-19T01:12:03.302Z,13.15
2023-04-19T01:12:35.365Z,13.93
2023-04-19T01:13:07.158Z,13.95
2023-04-19T01:13:39.941Z,13.80
2023-04-19T01:14:11.780Z,13.20
2023-04-19T01:14:44.096Z,14.90
2023-04-19T01:15:16.878Z,13.77
2023-04-19T01:15:48.783Z,14.18
2023-04-19T01:16:20.703Z,14.00
2023-04-19T01:16:54.142Z,14.98
2023-04-19T01:17:27.129Z,13.82
2023-04-19T01:17:58.982Z,14.40
2023-04-19T01:18:37.178Z,14.30
2023-04-19T01:19:09.014Z,15.07
2023-04-19T01:19:40.921Z,13.82
2023-04-19T01:20:13.735Z,14.75
2023-04-19T01:20:45.586Z,13.45
2023-04-19T01:21:18.530Z,14.70
2023-04-19T01:21:52.671Z,13.65
2023-04-19T01:22:28.150Z,13.57
2023-04-19T01:22:59.956Z,15.52
2023-04-19T01:23:31.731Z,13.85
2023-04-19T01:24:04.716Z,15.35
2023-04-19T01:24:36.508Z,14.55
2023-04-19T01:25:09.519Z,14.82
2023-04-19T01:25:41.384Z,14.95
2023-04-19T01:26:14.166Z,13.23
2023-04-19T01:26:46.023Z,15.55
2023-04-19T01:27:19.802Z,16.00
2023-04-19T01:27:52.532Z,14.70
2023-04-19T01:28:24.443Z,13.38
2023-04-19T01:28:56.252Z,15.50
2023-04-19T01:29:29.140Z,14.95
2023-04-19T01:30:00.974Z,16.55
2023-04-19T01:30:32.832Z,15.10
2023-04-19T01:31:05.765Z,15.38
2023-04-19T01:31:37.741Z,15.07
2023-04-19T01:32:09.594Z,15.25
2023-04-19T01:32:42.441Z,15.63
2023-04-19T01:33:14.343Z,15.35
2023-04-19T01:33:46.163Z,15.38
2023-04-19T01:34:18.406Z,15.60
2023-04-19T01:34:52.791Z,14.70
2023-04-19T01:35:24.616Z,14.98
2023-04-19T01:35:56.507Z,16.25
2023-04-19T01:36:29.422Z,15.40
2023-04-19T01:37:01.365Z,15.98
2023-04-19T01:37:36.786Z,16.33
2023-04-19T01:38:09.763Z,14.45
2023-04-19T01:38:41.595Z,15.00
2023-04-19T01:39:13.442Z,16.52
2023-04-19T01:39:46.361Z,15.88
2023-04-19T01:40:18.783Z,14.82
2023-04-19T01:40:50.678Z,15.52
2023-04-19T01:41:26.876Z,16.48
2023-04-19T01:41:58.839Z,14.65
2023-04-19T01:42:30.654Z,15.40
2023-04-19T01:43:03.406Z,15.70
2023-04-19T01:43:35.255Z,16.85
2023-04-19T01:44:07.033Z,16.02
2023-04-19T01:44:38.841Z,16.10
2023-04-19T01:45:11.917Z,17.02
2023-04-19T01:45:43.703Z,16.40
2023-04-19T01:46:15.508Z,15.75
2023-04-19T01:46:48.381Z,16.10
2023-04-19T01:47:20.188Z,16.05
2023-04-19T01:47:52.030Z,15.90
2023-04-19T01:48:24.808Z,16.95
2023-04-19T01:48:56.616Z,15.55
2023-04-19T01:49:28.412Z,16.05
2023-04-19T01:50:01.179Z,14.98
2023-04-19T01:50:33.113Z,16.60
2023-04-19T01:51:05.022Z,18.00
2023-04-19T01:51:39.758Z,16.23
2023-04-19T01:52:11.541Z,17.42
2023-04-19T01:52:44.689Z,16.92
2023-04-19T01:53:17.510Z,18.10
2023-04-19T01:53:53.292Z,16.27
2023-04-19T01:54:25.220Z,16.38
2023-04-19T01:54:57.968Z,16.80
2023-04-19T01:55:29.754Z,15.75
2023-04-19T01:56:01.540Z,16.45
2023-04-19T01:56:34.435Z,16.63
2023-04-19T01:57:06.329Z,15.73
2023-04-19T01:57:38.188Z,16.90
2023-04-19T01:58:10.969Z,17.35
2023-04-19T01:58:42.780Z,17.55
2023-04-19T01:59:14.594Z,17.45
2023-04-19T01:59:46.363Z,19.33
2023-04-19T02:00:19.384Z,17.95
2023-04-19T02:00:51.236Z,17.63
2023-04-19T02:01:23.132Z,16.00
2023-04-19T02:01:56.010Z,16.85
2023-04-19T02:02:28.085Z,16.80
2023-04-19T02:03:00.357Z,17.30
2023-04-19T02:03:33.389Z,17.20
2023-04-19T02:04:05.671Z,17.65
2023-04-19T02:04:37.587Z,18.92
2023-04-19T02:05:11.326Z,17.40
2023-04-19T02:05:43.172Z,18.70
2023-04-19T02:06:15.188Z,16.63
2023-04-19T02:06:47.941Z,17.73
2023-04-19T02:07:19.804Z,16.55
2023-04-19T02:07:52.959Z,17.52
2023-04-19T02:08:25.744Z,18.05
2023-04-19T02:08:57.561Z,18.35
2023-04-19T02:09:29.371Z,18.75
2023-04-19T02:10:02.163Z,18.17
2023-04-19T02:10:34.066Z,17.90
2023-04-19T02:11:07.644Z,18.98
2023-04-19T02:11:40.423Z,17.08
2023-04-19T02:12:12.272Z,17.83
2023-04-19T02:12:44.106Z,17.83
2023-04-19T02:13:16.879Z,18.70
2023-04-19T02:13:48.701Z,18.63
2023-04-19T02:14:20.528Z,18.85
2023-04-19T02:14:53.310Z,18.08
2023-04-19T02:15:25.130Z,19.35
2023-04-19T02:15:56.941Z,19.27
2023-04-19T02:16:29.789Z,21.05
2023-04-19T02:17:01.619Z,18.02
2023-04-19T02:17:33.443Z,20.83
2023-04-19T02:18:06.759Z,20.15
2023-04-19T02:18:39.388Z,18.25
2023-04-19T02:19:12.145Z,18.50
2023-04-19T02:19:43.922Z,18.52
2023-04-19T02:20:15.928Z,19.48
2023-04-19T02:20:48.721Z,20.67
2023-04-19T02:21:20.571Z,19.60
2023-04-19T02:21:53.654Z,19.48
2023-04-19T02:22:26.521Z,22.27
2023-04-19T02:22:59.710Z,20.40
2023-04-19T02:23:31.586Z,19.80
2023-04-19T02:24:04.666Z,21.42
2023-04-19T02:24:36.503Z,20.30
2023-04-19T02:25:08.812Z,19.65
2023-04-19T02:25:40.646Z,19.70
2023-04-19T02:26:13.947Z,21.17
2023-04-19T02:26:45.872Z,22.42
2023-04-19T02:27:18.915Z,20.60
2023-04-19T02:27:50.890Z,19.95
2023-04-19T02:28:22.907Z,21.25
2023-04-19T02:28:55.636Z,19.25
2023-04-19T02:29:27.761Z,19.95
2023-04-19T02:29:59.590Z,20.30
2023-04-19T02:30:31.497Z,18.70
2023-04-19T02:31:06.662Z,21.15
2023-04-19T02:31:38.517Z,19.60
2023-04-19T02:32:12.342Z,19.25
2023-04-19T02:32:45.226Z,22.48
2023-04-19T02:33:17.347Z,22.33
2023-04-19T02:33:49.164Z,20.23
2023-04-19T02:34:21.957Z,19.90
2023-04-19T02:34:53.795Z,20.90
2023-04-19T02:35:25.752Z,19.73
2023-04-19T02:35:58.524Z,19.92
2023-04-19T02:36:30.711Z,20.80
2023-04-19T02:37:04.112Z,20.27
2023-04-19T02:37:35.932Z,21.75
2023-04-19T02:38:09.140Z,20.15
2023-04-19T02:38:41.450Z,21.38
2023-04-19T02:39:14.237Z,19.75
2023-04-19T02:39:46.241Z,21.70
2023-04-19T02:40:18.275Z,20.70
2023-04-19T02:40:51.118Z,21.00
2023-04-19T02:41:22.926Z,22.55
2023-04-19T02:41:55.426Z,20.50
2023-04-19T02:42:28.212Z,19.48
2023-04-19T02:43:00.059Z,20.23
2023-04-19T02:43:31.951Z,22.23
2023-04-19T02:44:04.075Z,20.20
2023-04-19T02:44:36.954Z,20.23
2023-04-19T02:45:09.771Z,21.05
2023-04-19T02:45:41.616Z,20.10
2023-04-19T02:46:14.540Z,20.00
2023-04-19T02:46:49.213Z,23.17
2023-04-19T02:47:21.048Z,21.88
2023-04-19T02:47:54.101Z,19.50
2023-04-19T02:48:26.027Z,20.42
2023-04-19T02:48:57.848Z,21.88
2023-04-19T02:49:34.526Z,21.70
2023-04-19T02:50:07.462Z,21.73
2023-04-19T02:50:39.293Z,22.45
2023-04-19T02:51:16.614Z,23.45
2023-04-19T02:51:50.500Z,22.70
2023-04-19T02:52:22.410Z,23.15
2023-04-19T02:52:55.160Z,23.40
2023-04-19T02:53:28.504Z,23.25
2023-04-19T02:54:00.374Z,22.67
2023-04-19T02:54:33.818Z,23.42
2023-04-19T02:55:06.926Z,21.42
2023-04-19T02:55:39.030Z,22.33
2023-04-19T02:56:11.836Z,23.17
2023-04-19T02:56:43.611Z,23.85
2023-04-19T02:57:15.434Z,23.00
2023-04-19T02:57:48.175Z,23.30
2023-04-19T02:58:19.982Z,23.30
2023-04-19T02:58:53.602Z,22.48
2023-04-19T02:59:26.425Z,25.35
2023-04-19T02:59:58.853Z,22.23
2023-04-19T03:00:31.002Z,21.80
2023-04-19T03:01:04.011Z,22.30
2023-04-19T03:01:35.892Z,22.58
2023-04-19T03:02:07.892Z,23.40
2023-04-19T03:02:41.274Z,23.13
2023-04-19T03:03:13.260Z,24.00
2023-04-19T03:03:45.176Z,21.92
2023-04-19T03:04:18.245Z,23.80
2023-04-19T03:04:50.220Z,22.85
2023-04-19T03:05:22.252Z,24.73
2023-04-19T03:05:54.119Z,22.85
2023-04-19T03:06:27.073Z,22.70
2023-04-19T03:06:58.855Z,22.17
2023-04-19T03:07:30.682Z,23.05
2023-04-19T03:08:03.432Z,25.75
2023-04-19T03:08:36.625Z,23.98
2023-04-19T03:09:09.502Z,24.35
2023-04-19T03:09:41.293Z,25.27
2023-04-19T03:10:13.119Z,23.67
2023-04-19T03:10:45.899Z,24.92
2023-04-19T03:11:18.298Z,23.67
2023-04-19T03:11:50.109Z,24.35
2023-04-19T03:12:22.878Z,25.55
2023-04-19T03:12:54.646Z,25.13
2023-04-19T03:13:26.484Z,25.05
2023-04-19T03:13:59.231Z,26.77
2023-04-19T03:14:31.201Z,24.90
2023-04-19T03:15:03.143Z,24.33
2023-04-19T03:15:35.989Z,22.80
2023-04-19T03:16:08.616Z,23.25
2023-04-19T03:16:40.821Z,26.05
2023-04-19T03:17:13.612Z,23.60
2023-04-19T03:17:45.645Z,24.02
2023-04-19T03:18:17.912Z,23.45
2023-04-19T03:18:50.689Z,23.70
2023-04-19T03:19:22.498Z,23.77
2023-04-19T03:19:54.276Z,25.85
2023-04-19T03:20:26.656Z,25.25
2023-04-19T03:20:59.484Z,26.05
2023-04-19T03:21:31.371Z,24.92
2023-04-19T03:22:03.143Z,26.30
2023-04-19T03:22:35.903Z,25.27
2023-04-19T03:23:07.723Z,25.92
2023-04-19T03:23:41.017Z,25.38
2023-04-19T03:24:14.218Z,26.80
2023-04-19T03:24:46.122Z,27.30
2023-04-19T03:25:18.116Z,24.23
2023-04-19T03:25:51.317Z,25.45
2023-04-19T03:26:23.214Z,25.85
2023-04-19T03:26:55.063Z,25.42
2023-04-19T03:27:26.837Z,26.50
2023-04-19T03:27:59.632Z,25.75
2023-04-19T03:28:31.426Z,25.20
2023-04-19T03:29:03.217Z,27.38
2023-04-19T03:29:35.981Z,24.95
2023-04-19T03:30:08.818Z,25.65
2023-04-19T03:30:42.245Z,25.17
2023-04-19T03:31:14.095Z,25.15
2023-04-19T03:31:46.016Z,26.27
2023-04-19T03:32:18.794Z,25.23
2023-04-19T03:32:52.009Z,24.27
2023-04-19T03:33:23.884Z,25.40
2023-04-19T03:33:56.847Z,25.08
2023-04-19T03:34:28.685Z,25.50
2023-04-19T03:35:00.850Z,27.70
2023-04-19T03:35:33.601Z,26.27
2023-04-19T03:36:05.875Z,26.02
2023-04-19T03:36:39.240Z,25.67
2023-04-19T03:37:11.038Z,25.70
2023-04-19T03:37:43.419Z,24.67
2023-04-19T03:38:16.186Z,26.48
2023-04-19T03:38:49.301Z,26.30
2023-04-19T03:39:21.114Z,27.05
2023-04-19T03:39:53.929Z,25.85
2023-04-19T03:40:25.843Z,25.40
2023-04-19T03:40:57.674Z,26.92
2023-04-19T03:41:30.440Z,26.63
2023-04-19T03:42:02.564Z,25.90
2023-04-19T03:42:34.374Z,27.00
2023-04-19T03:43:06.163Z,26.83
2023-04-19T03:43:38.929Z,25.27
2023-04-19T03:44:10.779Z,26.20
2023-04-19T03:44:42.547Z,26.23
2023-04-19T03:45:15.331Z,25.33
2023-04-19T03:45:47.180Z,26.20
2023-04-19T03:46:19.071Z,25.00
2023-04-19T03:46:52.013Z,25.90
2023-04-19T03:47:24.057Z,24.50
2023-04-19T03:47:55.923Z,26.10
2023-04-19T03:48:28.973Z,25.83
2023-04-19T03:49:00.794Z,24.25
2023-04-19T03:49:32.592Z,23.58
2023-04-19T03:50:06.049Z,26.70
2023-04-19T03:50:37.851Z,25.73
2023-04-19T03:51:09.800Z,25.10
2023-04-19T03:51:42.606Z,24.88
2023-04-19T03:52:14.380Z,25.92
2023-04-19T03:52:46.271Z,25.42
2023-04-19T03:53:19.778Z,26.25
2023-04-19T03:53:52.971Z,26.00
2023-04-19T03:54:24.876Z,23.73
2023-04-19T03:54:57.630Z,23.92
2023-04-19T03:55:29.405Z,26.13
2023-04-19T03:56:01.190Z,26.63
2023-04-19T03:56:34.002Z,26.75
2023-04-19T03:57:05.879Z,28.40
2023-04-19T03:57:39.049Z,27.67
2023-04-19T03:58:11.109Z,24.73
2023-04-19T03:58:43.052Z,23.90
2023-04-19T03:59:16.078Z,23.95
2023-04-19T03:59:48.132Z,26.10
2023-04-19T04:00:20.457Z,27.30
2023-04-19T04:00:53.512Z,25.10
2023-04-19T04:01:26.660Z,24.88
2023-04-19T04:01:58.589Z,25.42
2023-04-19T04:02:31.579Z,26.60
2023-04-19T04:03:03.769Z,25.13
2023-04-19T04:03:36.066Z,27.13
2023-04-19T04:04:09.768Z,27.88
2023-04-19T04:04:42.070Z,25.08
2023-04-19T04:05:14.309Z,25.73
2023-04-19T04:05:47.366Z,25.67
2023-04-19T04:06:19.175Z,24.75
2023-04-19T04:06:51.133Z,26.92
2023-04-19T04:07:24.584Z,25.15
2023-04-19T04:07:57.729Z,25.50
2023-04-19T04:08:29.511Z,25.48
2023-04-19T04:09:03.812Z,26.35
2023-04-19T04:09:35.661Z,27.38
2023-04-19T04:10:08.815Z,28.50
2023-04-19T04:10:41.558Z,26.65
2023-04-19T04:11:13.434Z,26.73
2023-04-19T04:11:45.257Z,27.60
2023-04-19T04:12:18.027Z,25.13
2023-04-19T04:12:49.857Z,26.35
2023-04-19T04:13:21.710Z,25.63
2023-04-19T04:13:54.866Z,27.00
2023-04-19T04:14:26.713Z,25.38
2023-04-19T04:14:58.590Z,26.40
2023-04-19T04:15:31.357Z,26.02
2023-04-19T04:16:03.305Z,27.33
2023-04-19T04:16:35.156Z,26.48
2023-04-19T04:17:07.999Z,25.85
2023-04-19T04:17:39.861Z,25.13
2023-04-19T04:18:11.713Z,26.83
2023-04-19T04:18:44.548Z,25.80
2023-04-19T04:19:17.856Z,26.27
2023-04-19T04:19:49.663Z,25.80
2023-04-19T04:20:22.664Z,26.27
2023-04-19T04:20:54.632Z,26.58
2023-04-19T04:21:27.010Z,30.00
2023-04-19T04:21:58.811Z,26.70
2023-04-19T04:22:31.585Z,25.30
2023-04-19T04:23:03.427Z,26.10
2023-04-19T04:23:35.309Z,25.30
2023-04-19T04:24:09.752Z,25.20
2023-04-19T04:24:42.775Z,24.58
2023-04-19T04:25:15.844Z,27.83
2023-04-19T04:25:48.715Z,26.67
2023-04-19T04:26:21.748Z,26.55
2023-04-19T04:26:53.675Z,25.75
2023-04-19T04:27:26.560Z,26.98
2023-04-19T04:27:58.469Z,26.02
2023-04-19T04:28:30.841Z,26.10
2023-04-19T04:29:03.885Z,28.20
2023-04-19T04:29:36.714Z,26.52
2023-04-19T04:30:09.745Z,26.17
2023-04-19T04:30:42.865Z,24.55
2023-04-19T04:31:17.921Z,26.45
2023-04-19T04:31:49.933Z,26.70
2023-04-19T04:32:23.664Z,25.63
2023-04-19T04:32:57.845Z,27.23
2023-04-19T04:33:29.754Z,25.88
2023-04-19T04:34:03.363Z,26.15
2023-04-19T04:34:35.728Z,24.80
2023-04-19T04:35:09.359Z,26.98
2023-04-19T04:35:42.149Z,25.52
2023-04-19T04:36:13.946Z,25.15
2023-04-19T04:36:45.782Z,26.35
2023-04-19T04:37:18.788Z,25.42
2023-04-19T04:37:50.600Z,26.10
2023-04-19T04:38:24.924Z,27.33
2023-04-19T04:38:58.083Z,26.42
2023-04-19T04:39:31.234Z,24.80
2023-04-19T04:40:05.096Z,26.48
2023-04-19T04:40:37.883Z,27.33
2023-04-19T04:41:12.007Z,24.85
2023-04-19T04:41:43.896Z,26.95
2023-04-19T04:42:17.452Z,26.67
2023-04-19T04:42:49.444Z,26.48
2023-04-19T04:43:21.787Z,27.00
2023-04-19T04:44:10.704Z,25.75
2023-04-19T04:44:44.910Z,25.50
2023-04-19T04:45:18.952Z,25.33
2023-04-19T04:45:51.695Z,29.65
2023-04-19T04:46:23.714Z,29.25
2023-04-19T04:46:56.587Z,26.88
2023-04-19T04:47:31.887Z,26.92
2023-04-19T04:48:04.168Z,26.88
2023-04-19T04:48:36.967Z,26.27
2023-04-19T04:49:08.782Z,26.20
2023-04-19T04:49:40.864Z,28.35
2023-04-19T04:50:13.741Z,26.33
2023-04-19T04:50:45.665Z,27.35
2023-04-19T04:51:17.500Z,26.88
2023-04-19T04:51:49.353Z,27.42
2023-04-19T04:52:22.121Z,28.15
2023-04-19T04:52:53.915Z,25.27
2023-04-19T04:53:26.474Z,28.45
2023-04-19T04:53:59.405Z,27.38
2023-04-19T04:54:32.561Z,27.17
2023-04-19T04:55:06.075Z,26.40
2023-04-19T04:55:38.879Z,26.83
2023-04-19T04:56:10.664Z,27.50
2023-04-19T04:56:43.518Z,27.40
2023-04-19T04:57:15.833Z,28.58
2023-04-19T04:57:47.692Z,27.75
2023-04-19T04:58:20.621Z,29.00
2023-04-19T04:58:52.479Z,27.13
2023-04-19T04:59:24.290Z,26.98
2023-04-19T04:59:57.244Z,25.33
2023-04-19T05:00:29.000Z,27.52
2023-04-19T05:01:01.893Z,25.13
2023-04-19T05:01:34.241Z,25.95
2023-04-19T05:02:06.126Z,26.23
2023-04-19T05:02:38.930Z,26.50
2023-04-19T05:03:11.017Z,27.55
2023-04-19T05:03:43.913Z,28.80
2023-04-19T05:04:15.954Z,27.15
2023-04-19T05:04:47.942Z,26.45
2023-04-19T05:05:20.792Z,27.15
2023-04-19T05:05:52.599Z,27.20
2023-04-19T05:06:24.398Z,26.80
2023-04-19T05:06:57.130Z,26.85
2023-04-19T05:07:28.922Z,27.20
2023-04-19T05:08:01.083Z,28.05
2023-04-19T05:08:33.876Z,26.02
2023-04-19T05:09:05.645Z,25.95
2023-04-19T05:09:38.824Z,25.30
2023-04-19T05:10:11.895Z,25.58
2023-04-19T05:10:43.840Z,28.25
2023-04-19T05:11:17.125Z,28.10
2023-04-19T05:11:49.012Z,25.80
2023-04-19T05:12:20.868Z,28.50
2023-04-19T05:12:53.613Z,26.10
2023-04-19T05:13:25.424Z,26.55
2023-04-19T05:13:57.290Z,26.70
2023-04-19T05:14:30.083Z,26.35
2023-04-19T05:15:01.910Z,26.42
2023-04-19T05:15:33.723Z,27.52
2023-04-19T05:16:07.004Z,28.02
2023-04-19T05:16:39.504Z,26.52
2023-04-19T05:17:11.318Z,24.95
2023-04-19T05:17:44.124Z,26.27
2023-04-19T05:18:15.992Z,27.27
2023-04-19T05:18:47.823Z,26.65
2023-04-19T05:19:20.586Z,27.52
2023-04-19T05:19:52.348Z,28.17
2023-04-19T05:20:24.200Z,25.95
2023-04-19T05:20:58.283Z,26.35
2023-04-19T05:21:30.143Z,25.05
2023-04-19T05:22:01.914Z,24.55
2023-04-19T05:22:34.689Z,26.38
2023-04-19T05:23:06.536Z,24.88
2023-04-19T05:23:38.448Z,26.35
2023-04-19T05:24:11.255Z,27.88
2023-04-19T05:24:44.925Z,27.25
2023-04-19T05:25:16.836Z,26.40
2023-04-19T05:25:49.710Z,26.55
2023-04-19T05:26:21.597Z,26.60
2023-04-19T05:26:53.411Z,26.30
2023-04-19T05:27:26.282Z,28.00
2023-04-19T05:27:58.165Z,26.38
2023-04-19T05:28:29.981Z,26.45
2023-04-19T05:29:02.752Z,27.35
2023-04-19T05:29:34.509Z,25.95
2023-04-19T05:30:07.361Z,24.60
2023-04-19T05:30:40.244Z,25.55
2023-04-19T05:31:12.450Z,28.83
2023-04-19T05:31:44.410Z,27.77
2023-04-19T05:32:17.230Z,23.05
2023-04-19T05:32:49.289Z,26.02
2023-04-19T05:33:21.163Z,26.55
2023-04-19T05:33:53.991Z,26.58
2023-04-19T05:34:25.963Z,26.45
2023-04-19T05:34:57.820Z,26.27
2023-04-19T05:35:30.594Z,26.20
2023-04-19T05:36:02.400Z,25.52
2023-04-19T05:36:34.186Z,26.67
2023-04-19T05:37:07.199Z,26.52
2023-04-19T05:37:40.722Z,25.83
2023-04-19T05:38:12.520Z,27.42
2023-04-19T05:38:45.966Z,25.33
2023-04-19T05:39:17.754Z,25.92
2023-04-19T05:39:50.917Z,24.80
2023-04-19T05:40:24.233Z,27.63
2023-04-19T05:40:56.184Z,25.98
2023-04-19T05:41:28.029Z,26.48
2023-04-19T05:42:01.709Z,27.30
2023-04-19T05:42:33.530Z,26.45
2023-04-19T05:43:05.536Z,26.48
2023-04-19T05:43:38.336Z,24.90
2023-04-19T05:44:10.179Z,24.73
2023-04-19T05:44:42.129Z,25.38
2023-04-19T05:45:15.849Z,27.48
2023-04-19T05:45:47.824Z,26.15
2023-04-19T05:46:19.662Z,25.75
2023-04-19T05:46:52.528Z,27.38
2023-04-19T05:47:24.494Z,26.55
2023-04-19T05:47:56.424Z,26.70
2023-04-19T05:48:29.215Z,25.95
2023-04-19T05:49:00.990Z,25.83
2023-04-19T05:49:32.797Z,26.95
2023-04-19T05:50:06.029Z,25.40
2023-04-19T05:50:37.831Z,25.55
2023-04-19T05:51:09.662Z,26.23
2023-04-19T05:51:42.440Z,25.30
2023-04-19T05:52:14.269Z,25.70
2023-04-19T05:52:47.145Z,27.15
2023-04-19T05:53:18.984Z,25.17
2023-04-19T05:53:50.807Z,28.67
2023-04-19T05:54:23.600Z,26.80
2023-04-19T05:54:56.792Z,27.50
2023-04-19T05:55:29.548Z,26.90
2023-04-19T05:56:01.379Z,25.27
2023-04-19T05:56:33.209Z,27.38
2023-04-19T05:57:06.209Z,26.65
2023-04-19T05:57:38.071Z,26.20
2023-04-19T05:58:10.849Z,26.05
2023-04-19T05:58:42.734Z,22.95
2023-04-19T05:59:14.655Z,24.88
2023-04-19T05:59:47.539Z,25.42
2023-04-19T06:00:19.785Z,26.77
2023-04-19T06:00:52.948Z,25.45
2023-04-19T06:01:24.842Z,25.85
2023-04-19T06:01:56.814Z,25.65
2023-04-19T06:02:29.842Z,26.63
2023-04-19T06:03:02.050Z,25.52
2023-04-19T06:03:34.194Z,26.15
2023-04-19T06:04:07.189Z,26.65
2023-04-19T06:04:39.331Z,25.05
2023-04-19T06:05:11.691Z,25.00
2023-04-19T06:05:44.719Z,26.15
2023-04-19T06:06:16.802Z,26.25
2023-04-19T06:06:48.814Z,24.55
2023-04-19T06:07:32.013Z,27.00
2023-04-19T06:08:07.016Z,24.65
2023-04-19T06:08:39.791Z,24.40
2023-04-19T06:09:12.303Z,25.50
2023-04-19T06:09:44.179Z,25.60
2023-04-19T06:10:18.424Z,25.95
2023-04-19T06:10:55.600Z,24.73
2023-04-19T06:11:38.787Z,25.52
2023-04-19T06:12:20.180Z,24.45
2023-04-19T06:12:51.991Z,25.92
2023-04-19T06:13:23.858Z,24.75
2023-04-19T06:13:56.616Z,29.20
2023-04-19T06:14:29.100Z,26.70
2023-04-19T06:15:00.946Z,25.50
2023-04-19T06:15:33.768Z,24.92
2023-04-19T06:16:06.720Z,25.13
2023-04-19T06:16:38.688Z,26.40
2023-04-19T06:17:11.674Z,26.38
2023-04-19T06:17:43.565Z,24.05
2023-04-19T06:18:19.722Z,26.10
2023-04-19T06:18:53.103Z,25.10
2023-04-19T06:19:25.015Z,29.80
2023-04-19T06:19:57.959Z,25.55
2023-04-19T06:20:29.816Z,25.48
2023-04-19T06:21:01.787Z,23.95
2023-04-19T06:21:34.920Z,25.85
2023-04-19T06:22:06.775Z,28.85
2023-04-19T06:22:43.529Z,23.60
2023-04-19T06:23:18.226Z,27.00
2023-04-19T06:23:50.309Z,25.75
2023-04-19T06:24:22.163Z,24.67
2023-04-19T06:24:54.953Z,26.33
2023-04-19T06:25:28.161Z,27.30
2023-04-19T06:25:59.954Z,26.70
2023-04-19T06:26:32.791Z,29.48
2023-04-19T06:27:04.697Z,26.98
2023-04-19T06:27:37.460Z,26.05
2023-04-19T06:28:09.283Z,27.55
2023-04-19T06:28:41.230Z,30.52
2023-04-19T06:29:13.955Z,26.05
2023-04-19T06:29:45.749Z,26.75
2023-04-19T06:30:21.613Z,26.55
2023-04-19T06:30:53.496Z,26.20
2023-04-19T06:31:25.556Z,25.13
2023-04-19T06:31:58.518Z,26.13
2023-04-19T06:32:30.404Z,24.45
2023-04-19T06:33:02.463Z,25.13
2023-04-19T06:33:35.259Z,24.45
2023-04-19T06:34:07.063Z,25.60
2023-04-19T06:34:38.899Z,23.20
2023-04-19T06:35:12.041Z,25.40
2023-04-19T06:35:43.846Z,25.92
2023-04-19T06:36:16.717Z,24.98
2023-04-19T06:36:48.538Z,25.60
2023-04-19T06:37:21.302Z,25.33
2023-04-19T06:37:53.138Z,23.77
2023-04-19T06:38:25.079Z,25.40
2023-04-19T06:38:57.858Z,25.05
2023-04-19T06:39:29.667Z,23.40
2023-04-19T06:40:01.630Z,24.85
2023-04-19T06:40:35.862Z,26.33
2023-04-19T06:41:09.095Z,24.85
2023-04-19T06:41:40.907Z,25.30
2023-04-19T06:42:13.750Z,25.45
2023-04-19T06:42:45.780Z,24.33
2023-04-19T06:43:18.531Z,25.88
2023-04-19T06:43:50.555Z,24.13
2023-04-19T06:44:23.383Z,25.67
2023-04-19T06:44:57.077Z,24.60
2023-04-19T06:45:30.001Z,24.85
2023-04-19T06:46:03.144Z,24.25
2023-04-19T06:46:36.024Z,26.50
2023-04-19T06:47:07.831Z,25.60
2023-04-19T06:47:40.634Z,25.60
2023-04-19T06:48:12.544Z,25.63
2023-04-19T06:48:44.432Z,24.85
2023-04-19T06:49:17.185Z,24.85
2023-04-19T06:49:49.042Z,25.60
2023-04-19T06:50:21.363Z,24.25
2023-04-19T06:50:54.157Z,23.60
2023-04-19T06:51:26.066Z,25.00
2023-04-19T06:51:59.496Z,24.52
2023-04-19T06:52:32.259Z,25.90
2023-04-19T06:53:04.971Z,25.10
2023-04-19T06:53:37.837Z,24.00
2023-04-19T06:54:10.635Z,25.85
2023-04-19T06:54:42.483Z,23.88
2023-04-19T06:55:14.408Z,27.67
2023-04-19T06:55:48.775Z,27.25
2023-04-19T06:56:39.885Z,25.92
2023-04-19T06:57:12.622Z,25.25
2023-04-19T06:57:44.427Z,29.65
2023-04-19T06:58:16.255Z,24.52
2023-04-19T06:58:49.041Z,25.85
2023-04-19T06:59:21.289Z,70.90
2023-04-19T06:59:54.792Z,53.60